createdAt,value
2017-12-21T00:01:08.694Z,99.90
2017-12-21T00:03:36.004Z,99.90
2017-12-21T00:06:03.477Z,99.90
2017-12-21T00:08:30.127Z,99.90
2017-12-21T00:10:57.647Z,99.90
2017-12-21T00:13:24.327Z,99.90
2017-12-21T00:15:50.978Z,99.90
2017-12-21T00:18:18.410Z,99.90
2017-12-21T00:20:45.122Z,99.90
2017-12-21T00:23:11.767Z,99.90
2017-12-21T00:25:38.452Z,99.90
2017-12-21T00:28:05.095Z,99.90
2017-12-21T00:30:31.775Z,99.90
2017-12-21T00:32:58.458Z,99.90
2017-12-21T00:35:25.281Z,99.90
2017-12-21T00:37:52.649Z,99.90
2017-12-21T00:40:19.308Z,99.90
2017-12-21T00:42:45.945Z,99.90
2017-12-21T00:45:12.625Z,99.90
2017-12-21T00:47:40.089Z,99.90
2017-12-21T00:50:07.465Z,99.90
2017-12-21T00:52:34.097Z,99.90
2017-12-21T00:55:01.507Z,99.90
2017-12-21T00:57:28.171Z,99.90
2017-12-21T00:59:54.799Z,99.90
2017-12-21T01:02:21.487Z,99.90
2017-12-21T01:04:48.885Z,99.90
2017-12-21T01:07:15.572Z,99.90
2017-12-21T01:09:42.976Z,99.90
2017-12-21T01:12:09.670Z,99.90
2017-12-21T01:14:36.301Z,99.90
2017-12-21T01:17:02.950Z,99.90
2017-12-21T01:19:29.593Z,99.90
2017-12-21T01:21:57.007Z,99.90
2017-12-21T01:24:23.667Z,99.90
2017-12-21T01:26:50.317Z,99.90
2017-12-21T01:29:16.974Z,99.90
2017-12-21T01:31:43.630Z,99.90
2017-12-21T01:34:11.042Z,99.90
2017-12-21T01:36:37.698Z,99.90
2017-12-21T01:39:04.396Z,99.90
2017-12-21T01:41:31.106Z,99.90
2017-12-21T01:43:57.790Z,99.90
2017-12-21T01:46:25.351Z,99.90
2017-12-21T01:48:52.002Z,99.90
2017-12-21T01:51:18.678Z,99.90
2017-12-21T01:53:45.359Z,99.90
2017-12-21T01:56:13.702Z,99.90
2017-12-21T01:58:40.383Z,99.90
2017-12-21T02:01:07.870Z,99.90
2017-12-21T02:03:34.524Z,99.90
2017-12-21T02:06:01.293Z,99.90
2017-12-21T02:08:27.989Z,99.90
2017-12-21T02:10:55.508Z,99.90
2017-12-21T02:13:22.183Z,99.90
2017-12-21T02:15:49.620Z,99.90
2017-12-21T02:18:16.272Z,99.90
2017-12-21T02:20:43.026Z,99.90
2017-12-21T02:23:11.546Z,99.90
2017-12-21T02:25:38.258Z,99.90
2017-12-21T02:28:05.792Z,99.90
2017-12-21T02:30:32.571Z,99.90
2017-12-21T02:33:00.050Z,99.90
2017-12-21T02:35:27.055Z,99.90
2017-12-21T02:37:53.828Z,99.90
2017-12-21T02:40:21.851Z,99.90
2017-12-21T02:42:48.550Z,99.90
2017-12-21T02:45:16.046Z,99.90
2017-12-21T02:47:42.749Z,99.90
2017-12-21T02:50:10.532Z,99.90
2017-12-21T02:52:37.281Z,99.90
2017-12-21T02:55:04.016Z,99.90
2017-12-21T02:57:30.768Z,99.90
2017-12-21T02:59:57.576Z,99.90
2017-12-21T03:02:24.294Z,99.90
2017-12-21T03:04:51.770Z,99.90
2017-12-21T03:07:18.522Z,99.90
2017-12-21T03:09:45.277Z,99.90
2017-12-21T03:12:12.747Z,99.90
2017-12-21T03:14:40.267Z,99.90
2017-12-21T03:17:06.980Z,99.90
2017-12-21T03:19:33.657Z,99.90
2017-12-21T03:22:00.372Z,99.90
2017-12-21T03:24:27.120Z,99.90
2017-12-21T03:26:54.476Z,99.90
2017-12-21T03:29:21.174Z,99.90
2017-12-21T03:31:48.911Z,99.90
2017-12-21T03:34:16.484Z,99.90
2017-12-21T03:36:43.194Z,99.90
2017-12-21T03:39:09.834Z,99.90
2017-12-21T03:41:36.524Z,99.90
2017-12-21T03:44:03.274Z,99.90
2017-12-21T03:46:30.031Z,99.90
2017-12-21T03:48:58.410Z,99.90
2017-12-21T03:51:25.170Z,99.90
2017-12-21T03:53:53.036Z,99.90
2017-12-21T03:56:20.706Z,99.90
2017-12-21T03:58:48.314Z,99.90
2017-12-21T04:01:15.094Z,99.90
2017-12-21T04:03:41.887Z,99.90
2017-12-21T04:06:08.851Z,99.90
2017-12-21T04:08:35.648Z,99.90
2017-12-21T04:11:03.192Z,99.90
2017-12-21T04:13:30.375Z,99.90
2017-12-21T04:15:57.948Z,99.90
2017-12-21T04:18:24.610Z,99.90
2017-12-21T04:20:51.391Z,99.90
2017-12-21T04:23:18.066Z,99.90
2017-12-21T04:25:46.254Z,99.90
2017-12-21T04:28:12.955Z,99.90
2017-12-21T04:30:39.672Z,99.90
2017-12-21T04:33:06.342Z,99.90
2017-12-21T04:35:33.031Z,99.90
2017-12-21T04:37:59.801Z,99.90
2017-12-21T04:40:26.507Z,99.90
2017-12-21T04:42:53.955Z,99.90
2017-12-21T04:45:21.393Z,99.90
2017-12-21T04:47:48.066Z,99.90
2017-12-21T04:50:15.467Z,99.90
2017-12-21T04:52:42.135Z,99.90
2017-12-21T04:55:08.856Z,99.90
2017-12-21T04:57:35.500Z,99.90
2017-12-21T05:00:03.079Z,99.90
2017-12-21T05:02:29.777Z,99.90
2017-12-21T05:04:56.438Z,99.90
2017-12-21T05:07:23.125Z,99.90
2017-12-21T05:09:49.834Z,99.90
2017-12-21T05:12:16.535Z,99.90
2017-12-21T05:14:44.009Z,99.90
2017-12-21T05:17:10.666Z,99.90
2017-12-21T05:19:37.349Z,99.90
2017-12-21T05:22:04.014Z,99.90
2017-12-21T05:24:31.397Z,99.90
2017-12-21T05:26:58.075Z,99.90
2017-12-21T05:29:24.841Z,99.90
2017-12-21T05:31:51.480Z,99.90
2017-12-21T05:34:18.112Z,99.90
2017-12-21T05:36:44.770Z,99.90
2017-12-21T05:39:11.426Z,99.90
2017-12-21T05:41:38.087Z,99.90
2017-12-21T05:44:05.472Z,99.90
2017-12-21T05:46:32.386Z,99.90
2017-12-21T05:48:59.897Z,99.90
2017-12-21T05:51:26.614Z,99.90
2017-12-21T05:53:53.281Z,99.90
2017-12-21T05:56:19.976Z,99.90
2017-12-21T05:58:47.407Z,99.90
2017-12-21T06:01:14.126Z,99.90
2017-12-21T06:03:40.809Z,99.90
2017-12-21T06:06:07.474Z,99.90
2017-12-21T06:08:35.145Z,99.90
2017-12-21T06:11:02.633Z,99.90
2017-12-21T06:13:29.262Z,99.90
2017-12-21T06:15:56.000Z,99.90
2017-12-21T06:18:22.909Z,99.90
2017-12-21T06:20:49.584Z,99.90
2017-12-21T06:23:16.302Z,99.90
2017-12-21T06:25:43.916Z,99.90
2017-12-21T06:28:10.542Z,99.90
2017-12-21T06:30:37.185Z,99.90
2017-12-21T06:33:03.829Z,99.90
2017-12-21T06:35:30.916Z,99.90
2017-12-21T06:37:57.566Z,99.90
2017-12-21T06:40:24.296Z,99.90
2017-12-21T06:42:51.728Z,99.90
2017-12-21T06:45:18.397Z,99.90
2017-12-21T06:47:45.076Z,99.90
2017-12-21T06:50:11.869Z,99.90
2017-12-21T06:52:38.522Z,99.90
2017-12-21T06:55:05.220Z,99.90
2017-12-21T06:57:32.615Z,99.90
2017-12-21T06:59:59.275Z,99.90
2017-12-21T07:02:25.947Z,99.90
2017-12-21T07:04:52.575Z,99.90
2017-12-21T07:07:19.302Z,99.90
2017-12-21T07:09:45.977Z,99.90
2017-12-21T07:12:12.642Z,99.90
2017-12-21T07:14:40.053Z,99.90
2017-12-21T07:17:06.777Z,99.90
2017-12-21T07:19:34.380Z,98.10
2017-12-21T07:22:01.029Z,99.20
2017-12-21T07:24:27.747Z,93.10
2017-12-21T07:26:54.389Z,86.60
2017-12-21T07:29:21.030Z,82.40
2017-12-21T07:31:47.708Z,82.50
2017-12-21T07:34:15.090Z,73.20
2017-12-21T07:36:41.753Z,73.10
2017-12-21T07:39:08.450Z,59.60
2017-12-21T07:41:35.080Z,52.70
2017-12-21T07:44:01.738Z,47.70
2017-12-21T07:46:29.142Z,40.80
2017-12-21T07:48:55.782Z,40.80
2017-12-21T07:51:22.433Z,38.40
2017-12-21T07:53:49.118Z,36.10
2017-12-21T07:56:15.748Z,33.60
2017-12-21T07:58:42.406Z,33.40
2017-12-21T08:01:09.061Z,34.00
2017-12-21T08:03:35.742Z,32.00
2017-12-21T08:06:02.393Z,32.30
2017-12-21T08:08:29.349Z,34.10
2017-12-21T08:10:55.991Z,37.70
2017-12-21T08:13:22.624Z,39.80
2017-12-21T08:15:49.639Z,44.20
2017-12-21T08:18:16.340Z,47.70
2017-12-21T08:20:43.002Z,48.60
2017-12-21T08:23:09.638Z,51.40
2017-12-21T08:25:36.263Z,53.30
2017-12-21T08:28:02.954Z,55.70
2017-12-21T08:30:29.628Z,57.50
2017-12-21T08:32:57.173Z,54.70
2017-12-21T08:35:23.902Z,52.80
2017-12-21T08:37:50.552Z,51.90
2017-12-21T08:40:17.205Z,49.20
2017-12-21T08:42:43.884Z,45.60
2017-12-21T08:45:10.536Z,41.70
2017-12-21T08:47:37.209Z,40.10
2017-12-21T08:50:03.914Z,38.70
2017-12-21T08:52:30.570Z,38.60
2017-12-21T08:54:57.213Z,37.70
2017-12-21T08:57:23.885Z,39.80
2017-12-21T08:59:50.536Z,42.40
2017-12-21T09:02:17.214Z,46.20
2017-12-21T09:04:43.888Z,48.40
2017-12-21T09:07:10.534Z,51.20
2017-12-21T09:09:38.183Z,54.10
2017-12-21T09:12:04.874Z,54.10
2017-12-21T09:14:32.469Z,55.80
2017-12-21T09:16:59.156Z,55.90
2017-12-21T09:19:27.578Z,58.30
2017-12-21T09:21:54.245Z,58.30
2017-12-21T09:24:20.894Z,58.30
2017-12-21T09:26:47.551Z,57.30
2017-12-21T09:29:14.222Z,56.20
2017-12-21T09:31:40.883Z,57.40
2017-12-21T09:34:07.611Z,56.80
2017-12-21T09:36:34.267Z,56.40
2017-12-21T09:39:00.943Z,57.30
2017-12-21T09:41:27.646Z,56.60
2017-12-21T09:43:54.311Z,57.60
2017-12-21T09:46:20.946Z,57.80
2017-12-21T09:48:47.632Z,54.90
2017-12-21T09:51:15.073Z,49.40
2017-12-21T09:53:41.711Z,49.40
2017-12-21T09:56:09.117Z,45.60
2017-12-21T09:58:36.540Z,45.80
2017-12-21T10:01:03.197Z,45.80
2017-12-21T10:03:29.860Z,45.10
2017-12-21T10:05:57.345Z,42.00
2017-12-21T10:08:23.991Z,42.00
2017-12-21T10:10:50.696Z,40.20
2017-12-21T10:13:17.329Z,37.40
2017-12-21T10:15:43.980Z,34.80
2017-12-21T10:18:10.679Z,33.80
2017-12-21T10:20:37.306Z,33.30
2017-12-21T10:23:03.959Z,32.40
2017-12-21T10:25:30.675Z,31.90
2017-12-21T10:27:57.321Z,30.90
2017-12-21T10:30:23.945Z,30.00
2017-12-21T10:32:51.367Z,28.10
2017-12-21T10:35:18.041Z,28.10
2017-12-21T10:37:45.465Z,28.70
2017-12-21T10:40:12.114Z,28.70
2017-12-21T10:42:38.765Z,28.50
2017-12-21T10:45:05.434Z,28.70
2017-12-21T10:47:32.841Z,28.30
2017-12-21T10:49:59.488Z,28.30
2017-12-21T10:52:26.168Z,27.80
2017-12-21T10:54:52.819Z,29.10
2017-12-21T10:57:20.210Z,32.00
2017-12-21T10:59:46.859Z,32.00
2017-12-21T11:02:13.777Z,34.10
2017-12-21T11:04:41.161Z,39.80
2017-12-21T11:07:08.584Z,39.70
2017-12-21T11:09:35.997Z,44.90
2017-12-21T11:12:02.783Z,44.90
2017-12-21T11:14:29.409Z,47.10
2017-12-21T11:16:56.129Z,48.10
2017-12-21T11:19:22.811Z,49.80
2017-12-21T11:21:49.485Z,49.50
2017-12-21T11:24:16.199Z,50.70
2017-12-21T11:26:42.889Z,50.50
2017-12-21T11:29:09.545Z,49.70
2017-12-21T11:31:37.211Z,47.40
2017-12-21T11:34:03.875Z,45.90
2017-12-21T11:36:30.530Z,45.80
2017-12-21T11:38:57.214Z,45.80
2017-12-21T11:41:23.884Z,44.00
2017-12-21T11:43:50.546Z,44.40
2017-12-21T11:46:17.311Z,45.20
2017-12-21T11:48:44.731Z,48.70
2017-12-21T11:51:11.418Z,48.70
2017-12-21T11:53:38.825Z,50.50
2017-12-21T11:56:05.454Z,50.40
2017-12-21T11:58:32.123Z,50.90
2017-12-21T12:00:58.839Z,51.20
2017-12-21T12:03:25.501Z,51.70
2017-12-21T12:05:52.216Z,52.30
2017-12-21T12:08:18.913Z,53.40
2017-12-21T12:10:45.693Z,52.30
2017-12-21T12:13:13.141Z,51.00
2017-12-21T12:15:40.667Z,50.70
2017-12-21T12:18:07.423Z,50.70
2017-12-21T12:20:34.859Z,50.60
2017-12-21T12:23:01.520Z,52.10
2017-12-21T12:25:28.163Z,50.20
2017-12-21T12:27:54.836Z,49.90
2017-12-21T12:30:22.221Z,49.50
2017-12-21T12:32:48.936Z,49.50
2017-12-21T12:35:15.589Z,49.00
2017-12-21T12:37:43.061Z,47.60
2017-12-21T12:40:09.730Z,47.60
2017-12-21T12:42:36.373Z,48.10
2017-12-21T12:45:03.177Z,48.30
2017-12-21T12:47:30.680Z,48.10
2017-12-21T12:49:57.315Z,48.10
2017-12-21T12:52:24.728Z,49.20
2017-12-21T12:54:51.420Z,50.80
2017-12-21T12:57:18.063Z,51.00
2017-12-21T12:59:44.718Z,52.30
2017-12-21T13:02:11.474Z,53.60
2017-12-21T13:04:38.981Z,53.30
2017-12-21T13:07:05.632Z,54.20
2017-12-21T13:09:33.159Z,56.20
2017-12-21T13:11:59.817Z,56.20
2017-12-21T13:14:27.224Z,58.00
2017-12-21T13:16:54.001Z,57.90
2017-12-21T13:19:20.641Z,59.00
2017-12-21T13:21:47.334Z,59.40
2017-12-21T13:24:13.983Z,59.80
2017-12-21T13:26:40.686Z,60.40
2017-12-21T13:29:08.174Z,60.70
2017-12-21T13:31:34.935Z,60.70
2017-12-21T13:34:01.589Z,60.70
2017-12-21T13:36:28.268Z,61.50
2017-12-21T13:38:54.920Z,61.30
2017-12-21T13:41:22.712Z,60.70
2017-12-21T13:43:50.369Z,60.70
2017-12-21T13:46:17.803Z,60.30
2017-12-21T13:48:44.488Z,60.30
2017-12-21T13:51:11.151Z,60.40
2017-12-21T13:53:37.823Z,61.60
2017-12-21T13:56:04.494Z,61.90
2017-12-21T13:58:31.199Z,61.60
2017-12-21T14:00:57.985Z,62.50
2017-12-21T14:03:26.245Z,65.00
2017-12-21T14:05:53.027Z,65.00
2017-12-21T14:08:19.718Z,66.00
2017-12-21T14:10:47.150Z,68.90
2017-12-21T14:13:13.849Z,68.50
2017-12-21T14:15:41.331Z,67.90
2017-12-21T14:18:07.986Z,69.20
2017-12-21T14:20:34.648Z,69.70
2017-12-21T14:23:02.345Z,71.00
2017-12-21T14:25:29.338Z,72.50
2017-12-21T14:27:56.004Z,73.80
2017-12-21T14:30:22.702Z,74.00
2017-12-21T14:32:50.119Z,74.00
2017-12-21T14:35:17.029Z,74.00
2017-12-21T14:37:43.709Z,74.20
2017-12-21T14:40:10.379Z,74.40
2017-12-21T14:42:37.028Z,75.80
2017-12-21T14:45:04.048Z,74.00
2017-12-21T14:47:30.767Z,74.20
2017-12-21T14:49:58.187Z,76.10
2017-12-21T14:52:26.481Z,76.80
2017-12-21T14:54:55.406Z,77.30
2017-12-21T14:57:22.043Z,77.30
2017-12-21T14:59:48.699Z,78.00
2017-12-21T15:02:15.347Z,78.10
2017-12-21T15:04:41.984Z,78.20
2017-12-21T15:07:08.654Z,79.20
2017-12-21T15:09:36.229Z,79.50
2017-12-21T15:12:02.933Z,79.30
2017-12-21T15:14:30.557Z,80.00
2017-12-21T15:16:58.910Z,80.40
2017-12-21T15:19:25.619Z,80.30
2017-12-21T15:21:52.302Z,80.40
2017-12-21T15:24:18.950Z,80.70
2017-12-21T15:26:45.627Z,81.60
2017-12-21T15:29:13.000Z,81.70
2017-12-21T15:31:39.659Z,82.30
2017-12-21T15:34:06.325Z,82.10
2017-12-21T15:36:32.978Z,82.50
2017-12-21T15:38:59.661Z,82.80
2017-12-21T15:41:26.331Z,83.20
2017-12-21T15:43:52.996Z,83.90
2017-12-21T15:46:19.642Z,85.30
2017-12-21T15:48:47.212Z,85.60
2017-12-21T15:51:13.900Z,86.50
2017-12-21T15:53:40.610Z,87.60
2017-12-21T15:56:08.003Z,88.00
2017-12-21T15:58:34.653Z,88.10
2017-12-21T16:01:01.282Z,87.60
2017-12-21T16:03:27.960Z,86.90
2017-12-21T16:05:54.761Z,88.40
2017-12-21T16:08:22.241Z,88.80
2017-12-21T16:10:48.972Z,88.90
2017-12-21T16:13:15.657Z,89.00
2017-12-21T16:15:42.982Z,89.60
2017-12-21T16:18:09.687Z,90.10
2017-12-21T16:20:36.660Z,90.00
2017-12-21T16:23:03.335Z,90.00
2017-12-21T16:25:30.027Z,90.10
2017-12-21T16:27:57.450Z,88.50
2017-12-21T16:30:24.094Z,88.50
2017-12-21T16:32:50.792Z,89.00
2017-12-21T16:35:17.442Z,88.70
2017-12-21T16:37:44.110Z,89.80
2017-12-21T16:40:10.861Z,90.00
2017-12-21T16:42:38.515Z,89.40
2017-12-21T16:45:05.189Z,89.60
2017-12-21T16:47:31.903Z,89.00
2017-12-21T16:49:58.574Z,89.20
2017-12-21T16:52:25.314Z,87.50
2017-12-21T16:54:52.039Z,87.80
2017-12-21T16:57:19.904Z,87.70
2017-12-21T16:59:47.394Z,87.50
2017-12-21T17:02:14.944Z,87.50
2017-12-21T17:04:41.655Z,87.10
2017-12-21T17:07:09.306Z,87.80
2017-12-21T17:09:36.770Z,87.60
2017-12-21T17:12:03.460Z,87.60
2017-12-21T17:14:30.343Z,86.90
2017-12-21T17:16:57.806Z,84.60
2017-12-21T17:19:25.283Z,85.10
2017-12-21T17:21:51.971Z,85.10
2017-12-21T17:24:18.697Z,84.80
2017-12-21T17:26:45.465Z,84.60
2017-12-21T17:29:12.140Z,84.20
2017-12-21T17:31:39.569Z,83.30
2017-12-21T17:34:07.036Z,85.20
2017-12-21T17:36:33.777Z,85.20
2017-12-21T17:39:00.571Z,84.30
2017-12-21T17:41:27.242Z,83.90
2017-12-21T17:43:53.999Z,84.20
2017-12-21T17:46:20.680Z,83.70
2017-12-21T17:48:48.078Z,83.70
2017-12-21T17:51:14.770Z,83.50
2017-12-21T17:53:41.461Z,83.70
2017-12-21T17:56:08.879Z,84.10
2017-12-21T17:58:35.549Z,86.80
2017-12-21T18:01:03.303Z,85.30
2017-12-21T18:03:30.727Z,83.60
2017-12-21T18:05:57.398Z,83.50
2017-12-21T18:08:25.426Z,82.90
2017-12-21T18:10:52.432Z,82.70
2017-12-21T18:13:19.859Z,83.30
2017-12-21T18:15:46.523Z,83.20
2017-12-21T18:18:13.446Z,84.60
2017-12-21T18:20:40.141Z,84.20
2017-12-21T18:23:06.820Z,84.10
2017-12-21T18:25:33.542Z,85.30
2017-12-21T18:28:00.218Z,84.90
2017-12-21T18:30:28.808Z,86.50
2017-12-21T18:32:56.343Z,85.20
2017-12-21T18:35:23.158Z,84.70
2017-12-21T18:37:50.718Z,85.00
2017-12-21T18:40:18.136Z,85.10
2017-12-21T18:42:44.935Z,85.10
2017-12-21T18:45:12.138Z,85.10
2017-12-21T18:47:38.831Z,84.80
2017-12-21T18:50:05.567Z,85.20
2017-12-21T18:52:32.937Z,86.00
2017-12-21T18:54:59.630Z,85.90
2017-12-21T18:57:26.347Z,85.80
2017-12-21T18:59:53.096Z,86.40
2017-12-21T19:02:19.913Z,86.30
2017-12-21T19:04:47.930Z,86.80
2017-12-21T19:07:14.695Z,87.70
2017-12-21T19:09:41.376Z,86.70
2017-12-21T19:12:09.005Z,87.00
2017-12-21T19:14:35.762Z,87.70
2017-12-21T19:17:03.223Z,89.50
2017-12-21T19:19:30.739Z,90.50
2017-12-21T19:21:57.465Z,90.50
2017-12-21T19:24:24.150Z,91.20
2017-12-21T19:26:50.874Z,91.40
2017-12-21T19:29:17.587Z,92.30
2017-12-21T19:31:44.254Z,91.70
2017-12-21T19:34:11.821Z,91.30
2017-12-21T19:36:38.509Z,90.90
2017-12-21T19:39:05.958Z,91.40
2017-12-21T19:41:32.943Z,91.40
2017-12-21T19:43:59.621Z,91.50
2017-12-21T19:46:28.563Z,91.90
2017-12-21T19:48:55.270Z,92.30
2017-12-21T19:51:21.997Z,92.60
2017-12-21T19:53:48.657Z,92.90
2017-12-21T19:56:15.402Z,92.70
2017-12-21T19:58:42.083Z,93.00
2017-12-21T20:01:09.547Z,93.30
2017-12-21T20:03:36.982Z,93.30
2017-12-21T20:06:04.492Z,93.80
2017-12-21T20:08:31.130Z,94.20
2017-12-21T20:10:57.818Z,93.90
2017-12-21T20:13:25.642Z,94.10
2017-12-21T20:15:53.135Z,93.90
2017-12-21T20:18:20.012Z,93.80
2017-12-21T20:20:47.522Z,94.10
2017-12-21T20:23:14.202Z,94.10
2017-12-21T20:25:41.384Z,94.10
2017-12-21T20:28:08.929Z,94.50
2017-12-21T20:30:35.641Z,94.50
2017-12-21T20:33:02.358Z,94.30
2017-12-21T20:35:30.195Z,94.30
2017-12-21T20:37:58.509Z,94.80
2017-12-21T20:40:25.610Z,94.80
2017-12-21T20:42:52.261Z,94.60
2017-12-21T20:45:18.919Z,94.50
2017-12-21T20:47:45.632Z,93.70
2017-12-21T20:50:12.487Z,93.90
2017-12-21T20:52:39.213Z,94.10
2017-12-21T20:55:05.899Z,93.90
2017-12-21T20:57:32.591Z,93.30
2017-12-21T20:59:59.247Z,93.30
2017-12-21T21:02:26.034Z,93.10
2017-12-21T21:04:53.788Z,93.50
2017-12-21T21:07:20.459Z,93.50
2017-12-21T21:09:47.128Z,93.10
2017-12-21T21:12:14.862Z,92.80
2017-12-21T21:14:42.369Z,93.00
2017-12-21T21:17:09.614Z,92.90
2017-12-21T21:19:36.433Z,93.10
2017-12-21T21:22:03.873Z,91.80
2017-12-21T21:24:30.615Z,91.80
2017-12-21T21:26:57.289Z,92.90
2017-12-21T21:29:24.405Z,92.00
2017-12-21T21:31:51.095Z,92.40
2017-12-21T21:34:17.778Z,92.90
2017-12-21T21:36:44.492Z,92.80
2017-12-21T21:39:11.194Z,92.40
2017-12-21T21:41:38.608Z,92.90
2017-12-21T21:44:07.361Z,92.90
2017-12-21T21:46:34.031Z,92.80
2017-12-21T21:49:00.702Z,92.90
2017-12-21T21:51:27.748Z,92.80
2017-12-21T21:53:54.446Z,92.80
2017-12-21T21:56:21.141Z,92.80
2017-12-21T21:58:48.650Z,92.70
2017-12-21T22:01:15.549Z,92.60
2017-12-21T22:03:42.267Z,92.40
2017-12-21T22:06:08.989Z,92.30
2017-12-21T22:08:35.677Z,92.60
2017-12-21T22:11:02.421Z,92.10
2017-12-21T22:13:29.169Z,92.10
2017-12-21T22:15:55.894Z,92.70
2017-12-21T22:18:22.581Z,92.40
2017-12-21T22:20:50.175Z,91.70
2017-12-21T22:23:17.677Z,91.70
2017-12-21T22:25:44.972Z,91.90
2017-12-21T22:28:12.478Z,90.50
2017-12-21T22:30:39.158Z,90.50
2017-12-21T22:33:06.724Z,90.40
2017-12-21T22:35:33.382Z,90.40
2017-12-21T22:38:00.785Z,91.60
2017-12-21T22:40:27.499Z,91.30
2017-12-21T22:42:55.933Z,90.90
2017-12-21T22:45:22.613Z,90.90
2017-12-21T22:47:50.039Z,92.30
2017-12-21T22:50:17.749Z,92.30
2017-12-21T22:52:44.438Z,92.80
2017-12-21T22:55:11.107Z,93.50
2017-12-21T22:57:37.788Z,93.50
2017-12-21T23:00:04.602Z,93.90
2017-12-21T23:02:31.257Z,93.80
2017-12-21T23:04:58.672Z,93.70
2017-12-21T23:07:25.350Z,93.70
2017-12-21T23:09:52.913Z,93.60
2017-12-21T23:12:20.347Z,93.60
2017-12-21T23:14:47.169Z,93.30
2017-12-21T23:17:13.823Z,93.20
2017-12-21T23:19:40.651Z,93.10
2017-12-21T23:22:07.357Z,93.30
2017-12-21T23:24:34.794Z,93.40
2017-12-21T23:27:01.511Z,93.40
2017-12-21T23:29:28.161Z,93.30
2017-12-21T23:31:54.841Z,93.50
2017-12-21T23:34:22.340Z,93.90
2017-12-21T23:36:49.203Z,94.30
2017-12-21T23:39:15.892Z,94.60
2017-12-21T23:41:42.550Z,94.80
2017-12-21T23:44:09.969Z,95.10
2017-12-21T23:46:36.689Z,95.10
2017-12-21T23:49:04.176Z,94.30
2017-12-21T23:51:30.914Z,93.80
2017-12-21T23:53:57.594Z,93.50
2017-12-21T23:56:25.133Z,93.80
2017-12-21T23:58:51.751Z,93.80
